Terminal Aerodrome Forecast
Issued by NWS

Home | Current Version | Previous Version | Text Only | Print | Product List | Glossary On
Versions: 1 2 3 4 5 6 7 8 9 10 11 12 13 14 15 16 17 18 19 20 21
000
FTUS43 KIWX 210538
TAFSBN
TAF
KSBN 210538Z 2106/2206 19005KT 6SM BR OVC015
     FM210900 19005KT 3SM BR OVC007
     FM211200 17005KT 1SM -DZ BR OVC005
     FM211700 17007KT 4SM -DZ BR OVC007
     FM220300 17005KT 1SM -RA BR OVC004=

USA.gov is the U.S. government's official web portal to all federal, state and local government web resources and services.